Time;durP1;ratioP1;P1;durP2;ratioP2;P2;SDS_P1;SDS_P2;PMS_P1;PMS_P2;Temp;Humidity;BMP_temperature;BMP_pressure;BME280_temperature;BME280_humidity;BME280_pressure;Samples;Min_cycle;Max_cycle;Signal;HPM_P1;HPM_P2
2022/04/01 00:02:07;;;;;;;2.70;1.43;;;2.20;99.90;;;;;;5009896;28;20438;-48
2022/04/01 00:04:33;;;;;;;1.53;1.20;;;2.20;99.90;;;;;;5013569;28;20266;-48
2022/04/01 00:06:58;;;;;;;2.70;1.20;;;2.20;99.90;;;;;;5013296;28;20558;-48
2022/04/01 00:09:24;;;;;;;1.37;1.20;;;2.20;99.90;;;;;;5013406;28;20648;-47
2022/04/01 00:11:51;;;;;;;3.90;1.47;;;2.30;99.90;;;;;;5013317;28;20179;-48
2022/04/01 00:14:17;;;;;;;2.23;1.20;;;2.30;99.90;;;;;;5013080;28;20266;-49
2022/04/01 00:16:42;;;;;;;1.73;1.30;;;2.30;99.90;;;;;;5008758;28;20442;-49
2022/04/01 00:19:08;;;;;;;1.20;1.10;;;2.20;99.90;;;;;;5011809;28;20204;-48
2022/04/01 00:21:34;;;;;;;2.87;1.10;;;2.20;99.90;;;;;;4994952;28;20195;-48
2022/04/01 00:24:00;;;;;;;3.50;1.40;;;2.20;99.90;;;;;;5012642;28;20195;-48
2022/04/01 00:26:26;;;;;;;1.70;1.50;;;2.30;99.90;;;;;;5011792;28;20470;-48
2022/04/01 00:28:52;;;;;;;3.33;1.60;;;2.30;99.90;;;;;;5012855;28;20423;-48
2022/04/01 00:31:18;;;;;;;2.67;2.30;;;2.20;99.90;;;;;;5012252;28;20324;-48
2022/04/01 00:33:44;;;;;;;3.00;1.53;;;2.30;99.90;;;;;;5009429;28;20193;-49
2022/04/01 00:36:09;;;;;;;1.40;1.30;;;2.30;99.90;;;;;;5012325;28;20431;-49
2022/04/01 00:38:35;;;;;;;2.47;1.50;;;2.30;99.90;;;;;;5012428;28;20196;-48
2022/04/01 00:41:01;;;;;;;3.60;1.47;;;2.30;99.90;;;;;;5011738;28;20187;-48
2022/04/01 00:43:28;;;;;;;1.27;1.17;;;2.30;99.90;;;;;;5011938;28;20567;-48
2022/04/01 00:45:54;;;;;;;3.93;1.57;;;2.30;99.90;;;;;;5011371;28;20469;-49
2022/04/01 00:48:19;;;;;;;2.83;1.40;;;2.30;99.90;;;;;;5011956;28;20469;-49
2022/04/01 00:50:45;;;;;;;2.83;1.60;;;2.30;99.90;;;;;;5012258;28;20199;-48
2022/04/01 00:53:11;;;;;;;2.47;1.70;;;2.30;99.90;;;;;;5011743;28;20226;-48
2022/04/01 00:55:37;;;;;;;1.70;1.33;;;2.30;99.90;;;;;;5011270;28;20426;-48
2022/04/01 00:58:05;;;;;;;1.60;1.40;;;2.20;99.90;;;;;;5011656;28;20227;-49
2022/04/01 01:00:31;;;;;;;1.43;0.97;;;2.20;99.90;;;;;;5023474;28;20483;-49
2022/04/01 01:02:58;;;;;;;1.80;1.40;;;2.30;99.90;;;;;;5031634;28;20429;-49
2022/04/01 01:05:24;;;;;;;4.40;1.50;;;2.20;99.90;;;;;;5031304;28;20724;-49
2022/04/01 01:07:50;;;;;;;2.03;1.30;;;2.20;99.90;;;;;;5031254;28;20500;-49
2022/04/01 01:10:18;;;;;;;1.77;1.17;;;2.20;99.90;;;;;;5031383;28;20422;-49
2022/04/01 01:12:44;;;;;;;1.77;1.40;;;2.20;99.90;;;;;;5031730;28;20495;-48
2022/04/01 01:15:13;;;;;;;2.30;1.90;;;2.30;99.90;;;;;;5032106;28;21197;-49
2022/04/01 01:17:39;;;;;;;1.83;1.27;;;2.30;99.90;;;;;;5030486;28;20789;-48
2022/04/01 01:20:15;;;;;;;3.87;1.50;;;2.30;99.90;;;;;;5031286;28;20418;-48
2022/04/01 01:22:42;;;;;;;11.00;1.40;;;2.20;99.90;;;;;;5031355;28;20437;-48
2022/04/01 01:25:08;;;;;;;2.30;1.60;;;2.20;99.90;;;;;;5031052;28;20434;-48
2022/04/01 01:27:34;;;;;;;1.50;1.33;;;2.20;99.90;;;;;;5030321;28;20472;-49
2022/04/01 01:30:02;;;;;;;1.47;1.30;;;2.20;99.90;;;;;;5034675;28;20891;-48
2022/04/01 01:32:29;;;;;;;1.57;1.33;;;2.20;99.90;;;;;;5031197;28;20213;-48
2022/04/01 01:34:55;;;;;;;3.03;1.60;;;2.20;99.90;;;;;;5024111;28;20925;-48
2022/04/01 01:37:21;;;;;;;1.50;1.40;;;2.20;99.90;;;;;;5031096;28;20472;-48
2022/04/01 01:39:47;;;;;;;1.30;1.17;;;2.30;99.90;;;;;;5031002;28;20825;-49
2022/04/01 01:42:12;;;;;;;2.17;1.70;;;2.20;99.90;;;;;;5030572;28;20191;-49
2022/04/01 01:44:38;;;;;;;3.70;1.60;;;2.20;99.90;;;;;;5030861;28;20276;-49
2022/04/01 01:47:04;;;;;;;2.00;1.30;;;2.20;99.90;;;;;;5030554;28;20215;-48
2022/04/01 01:49:30;;;;;;;2.70;1.23;;;2.30;99.90;;;;;;5030861;28;20185;-49
2022/04/01 01:54:43;;;;;;;8.03;1.87;;;2.30;99.90;;;;;;5030586;28;20190;-48
2022/04/01 01:57:10;;;;;;;1.90;1.30;;;2.30;99.90;;;;;;5028444;28;20442;-48
2022/04/01 01:59:36;;;;;;;3.57;1.30;;;2.30;99.90;;;;;;5030803;28;20496;-48
2022/04/01 02:02:05;;;;;;;3.87;1.27;;;2.30;99.90;;;;;;5030192;28;20946;-48
2022/04/01 02:04:32;;;;;;;2.03;1.30;;;2.30;99.90;;;;;;5030504;28;20449;-49
2022/04/01 02:06:58;;;;;;;7.27;1.33;;;2.30;99.90;;;;;;5030359;28;20563;-49
2022/04/01 02:09:23;;;;;;;1.17;1.07;;;2.30;99.90;;;;;;5030547;28;20446;-49
2022/04/01 02:11:50;;;;;;;1.97;1.30;;;2.30;99.90;;;;;;5030375;28;20432;-49
2022/04/01 02:14:15;;;;;;;1.63;1.10;;;2.30;99.90;;;;;;5029739;28;20178;-48
2022/04/01 02:16:43;;;;;;;2.57;1.20;;;2.30;99.90;;;;;;5012332;28;20938;-48
2022/04/01 02:19:10;;;;;;;1.90;1.40;;;2.30;99.90;;;;;;5029184;28;20198;-49
2022/04/01 02:21:35;;;;;;;3.17;1.30;;;2.20;99.90;;;;;;5030332;28;20747;-49
2022/04/01 02:24:01;;;;;;;2.07;1.10;;;2.20;99.90;;;;;;5030035;28;20433;-49
2022/04/01 02:26:26;;;;;;;3.60;1.30;;;2.20;99.90;;;;;;5029068;28;20321;-49
2022/04/01 02:28:54;;;;;;;4.30;1.10;;;2.10;99.90;;;;;;5030036;28;20179;-49
2022/04/01 02:31:20;;;;;;;1.60;1.13;;;2.20;99.90;;;;;;5029650;28;20217;-49
2022/04/01 02:33:46;;;;;;;3.00;1.77;;;2.20;99.90;;;;;;5029654;28;20421;-48
2022/04/01 02:36:12;;;;;;;4.20;1.00;;;2.30;99.90;;;;;;5029035;28;20191;-49
2022/04/01 02:38:40;;;;;;;4.93;1.20;;;2.20;99.90;;;;;;5029360;28;20488;-49
2022/04/01 02:41:07;;;;;;;3.00;1.10;;;2.10;99.90;;;;;;5029578;28;20182;-48
2022/04/01 02:43:34;;;;;;;3.70;1.23;;;2.10;99.90;;;;;;5029542;28;20430;-49
2022/04/01 02:45:59;;;;;;;1.83;1.10;;;2.10;99.90;;;;;;5029101;28;20473;-48
2022/04/01 02:48:26;;;;;;;1.90;1.10;;;2.10;99.90;;;;;;5030296;28;20763;-48
2022/04/01 02:50:51;;;;;;;3.57;1.20;;;2.20;99.90;;;;;;5030094;28;20190;-49
2022/04/01 02:53:17;;;;;;;2.97;1.53;;;2.20;99.90;;;;;;5028315;28;20426;-48
2022/04/01 02:55:43;;;;;;;1.80;1.00;;;2.20;99.90;;;;;;5029030;28;20184;-49
2022/04/01 02:58:09;;;;;;;1.00;0.90;;;2.20;99.90;;;;;;5029290;28;20191;-49
2022/04/01 03:00:39;;;;;;;1.30;1.03;;;2.30;99.90;;;;;;5029064;28;20473;-49
2022/04/01 03:03:06;;;;;;;3.17;1.10;;;2.30;99.90;;;;;;5028847;28;20421;-49
2022/04/01 03:05:37;;;;;;;1.20;1.10;;;2.20;99.90;;;;;;5029341;28;20426;-49
2022/04/01 03:08:07;;;;;;;1.43;1.10;;;2.20;99.90;;;;;;5029064;28;20450;-48
2022/04/01 03:10:34;;;;;;;1.33;0.90;;;2.20;99.90;;;;;;5028592;28;20528;-48
2022/04/01 03:13:00;;;;;;;4.00;1.37;;;2.20;99.90;;;;;;5028793;28;20517;-48
2022/04/01 03:15:29;;;;;;;3.57;1.30;;;2.20;99.90;;;;;;5028995;28;20446;-49
2022/04/01 03:17:55;;;;;;;1.30;1.10;;;2.20;99.90;;;;;;5007259;28;20441;-48
2022/04/01 03:20:22;;;;;;;4.10;1.10;;;2.30;99.90;;;;;;5029061;28;20907;-49
2022/04/01 03:22:48;;;;;;;2.73;1.40;;;2.30;99.90;;;;;;5029150;28;20446;-49
2022/04/01 03:25:16;;;;;;;2.60;1.20;;;2.20;99.90;;;;;;5029129;28;21265;-48
2022/04/01 03:27:42;;;;;;;3.60;1.60;;;2.30;99.90;;;;;;5028858;28;20248;-49
2022/04/01 03:30:09;;;;;;;1.80;1.37;;;2.20;99.90;;;;;;5028877;28;20659;-46
2022/04/01 03:32:37;;;;;;;3.37;1.43;;;2.20;99.90;;;;;;5028626;28;20181;-45
2022/04/01 03:35:05;;;;;;;6.77;1.90;;;2.20;99.90;;;;;;5029234;28;20793;-45
2022/04/01 03:37:30;;;;;;;4.13;1.70;;;2.20;99.90;;;;;;5028015;28;20465;-46
2022/04/01 03:39:56;;;;;;;2.60;1.53;;;2.20;99.90;;;;;;5028813;28;20469;-45
2022/04/01 03:42:22;;;;;;;1.87;1.50;;;2.20;99.90;;;;;;5029140;28;20803;-45
2022/04/01 03:44:47;;;;;;;3.30;1.63;;;2.20;99.90;;;;;;5028252;28;20430;-45
2022/04/01 03:47:20;;;;;;;3.20;1.60;;;2.30;99.90;;;;;;5028864;28;20208;-45
2022/04/01 03:49:51;;;;;;;5.00;2.10;;;2.30;99.90;;;;;;5027932;28;20182;-46
2022/04/01 03:52:18;;;;;;;1.60;1.50;;;2.30;99.90;;;;;;5028937;28;20501;-45
2022/04/01 03:54:47;;;;;;;3.23;2.00;;;2.30;99.90;;;;;;5028383;28;21148;-47
2022/04/01 03:57:15;;;;;;;3.50;2.00;;;2.30;99.90;;;;;;5022085;28;20450;-46
2022/04/01 03:59:41;;;;;;;3.80;2.00;;;2.30;99.90;;;;;;5027857;28;20481;-47
2022/04/01 04:02:12;;;;;;;3.27;1.83;;;2.30;99.90;;;;;;5027230;28;20429;-47
2022/04/01 04:04:39;;;;;;;2.60;1.90;;;2.30;99.90;;;;;;5027932;28;20509;-45
2022/04/01 04:07:09;;;;;;;4.97;2.30;;;2.40;99.90;;;;;;5008363;28;20476;-45
2022/04/01 04:09:40;;;;;;;3.67;2.07;;;2.40;99.90;;;;;;5028342;28;20472;-46
2022/04/01 04:12:07;;;;;;;4.20;1.93;;;2.40;99.90;;;;;;5028174;28;20516;-46
2022/04/01 04:14:33;;;;;;;4.03;2.20;;;2.30;99.90;;;;;;5027984;28;20426;-45
2022/04/01 04:17:16;;;;;;;3.70;1.90;;;2.30;99.90;;;;;;5028065;28;20856;-46
2022/04/01 04:20:01;;;;;;;3.50;1.90;;;2.30;99.90;;;;;;5027758;28;20186;-46
2022/04/01 04:22:41;;;;;;;3.07;2.17;;;2.40;99.90;;;;;;5028010;28;20422;-45
2022/04/01 04:25:14;;;;;;;2.30;2.10;;;2.30;99.90;;;;;;5028277;28;20430;-45
2022/04/01 04:27:51;;;;;;;3.00;2.10;;;2.30;99.90;;;;;;5028154;28;20492;-46
2022/04/01 04:30:18;;;;;;;4.93;2.47;;;2.30;99.90;;;;;;5028662;28;20508;-45
2022/04/01 04:32:54;;;;;;;3.60;2.67;;;2.30;99.90;;;;;;5027635;28;20537;-46
2022/04/01 04:35:21;;;;;;;4.57;2.77;;;2.30;99.90;;;;;;5027604;28;20506;-45
2022/04/01 04:37:47;;;;;;;5.23;2.07;;;2.40;99.90;;;;;;5027700;28;20567;-45
2022/04/01 04:40:17;;;;;;;6.73;3.10;;;2.40;99.90;;;;;;5024048;28;20521;-45
2022/04/01 04:42:48;;;;;;;4.83;2.23;;;2.40;99.90;;;;;;5027411;28;20902;-46
2022/04/01 04:45:16;;;;;;;5.47;2.77;;;2.40;99.90;;;;;;5028337;28;20426;-46
2022/04/01 04:47:42;;;;;;;3.33;2.47;;;2.50;99.90;;;;;;5024566;28;20480;-45
2022/04/01 04:50:08;;;;;;;4.40;2.70;;;2.40;99.90;;;;;;5031040;28;20521;-45
2022/04/01 04:52:34;;;;;;;4.50;2.50;;;2.40;99.90;;;;;;5031774;28;20426;-46
2022/04/01 04:55:06;;;;;;;4.50;2.10;;;2.40;99.90;;;;;;5030991;28;20427;-45
2022/04/01 04:57:33;;;;;;;3.30;2.37;;;2.40;99.90;;;;;;5013968;28;20441;-46
2022/04/01 05:00:00;;;;;;;3.30;2.50;;;2.40;99.90;;;;;;5031351;28;20485;-45
2022/04/01 05:02:56;;;;;;;6.27;3.27;;;2.40;99.90;;;;;;5031393;28;20429;-46
2022/04/01 05:05:36;;;;;;;8.20;3.10;;;2.40;99.90;;;;;;5028365;28;20433;-46
2022/04/01 05:08:15;;;;;;;7.60;3.10;;;2.40;99.90;;;;;;5029861;28;20433;-46
2022/04/01 05:11:27;;;;;;;7.10;3.00;;;2.40;99.90;;;;;;5031936;28;20425;-46
2022/04/01 05:14:08;;;;;;;5.37;3.57;;;2.40;99.90;;;;;;5000396;28;20982;-46
2022/04/01 05:16:53;;;;;;;5.07;3.10;;;2.40;99.90;;;;;;5027797;28;20433;-46
2022/04/01 05:19:31;;;;;;;4.20;3.00;;;2.40;99.90;;;;;;5028464;28;20449;-46
2022/04/01 05:22:03;;;;;;;5.10;2.90;;;2.50;99.90;;;;;;5028531;28;20907;-46
2022/04/01 05:24:53;;;;;;;7.33;2.87;;;2.50;99.90;;;;;;5030906;28;20437;-45
2022/04/01 05:27:30;;;;;;;3.20;2.70;;;2.50;99.90;;;;;;5020212;28;21396;-46
2022/04/01 05:30:16;;;;;;;12.53;3.60;;;2.50;99.90;;;;;;5028270;28;20418;-46
2022/04/01 05:32:58;;;;;;;4.67;2.63;;;2.50;99.90;;;;;;5028234;28;20492;-46
2022/04/01 05:35:27;;;;;;;3.60;2.40;;;2.50;99.90;;;;;;5030831;28;20982;-46
2022/04/01 05:37:54;;;;;;;9.07;3.20;;;2.60;99.90;;;;;;5029299;28;20496;-45
2022/04/01 05:40:22;;;;;;;5.80;2.60;;;2.60;99.90;;;;;;5013744;28;20480;-46
2022/04/01 05:42:48;;;;;;;5.83;2.83;;;2.60;99.90;;;;;;5030756;28;20430;-46
2022/04/01 05:45:15;;;;;;;3.00;2.70;;;2.60;99.90;;;;;;5030773;28;20437;-46
2022/04/01 05:47:42;;;;;;;5.40;3.27;;;2.60;99.90;;;;;;5031056;28;20465;-45
2022/04/01 05:50:08;;;;;;;4.30;2.70;;;2.70;99.90;;;;;;5030478;28;20422;-47
2022/04/01 05:52:37;;;;;;;5.10;3.13;;;2.70;99.90;;;;;;5030725;28;20438;-45
2022/04/01 05:55:03;;;;;;;3.60;3.00;;;2.70;99.90;;;;;;5031201;28;20434;-46
2022/04/01 05:57:29;;;;;;;8.50;3.30;;;2.80;99.90;;;;;;5030386;28;20441;-46
2022/04/01 05:59:55;;;;;;;7.70;3.70;;;2.80;99.90;;;;;;5029986;28;20915;-46
2022/04/01 06:02:45;;;;;;;5.80;3.20;;;2.80;99.90;;;;;;5012803;28;20594;-47
2022/04/01 06:05:16;;;;;;;5.60;3.37;;;2.90;99.90;;;;;;5027902;28;20950;-46
2022/04/01 06:07:49;;;;;;;9.30;3.20;;;2.90;99.90;;;;;;5029762;28;20853;-46
2022/04/01 06:10:29;;;;;;;7.57;3.53;;;3.00;99.90;;;;;;5029624;28;20430;-46
2022/04/01 06:13:27;;;;;;;4.43;3.07;;;3.00;99.90;;;;;;5028949;28;20453;-46
2022/04/01 06:16:02;;;;;;;5.87;3.70;;;3.00;99.90;;;;;;5026236;28;20438;-45
2022/04/01 06:18:33;;;;;;;4.77;3.30;;;3.00;99.90;;;;;;5029857;28;20436;-46
2022/04/01 06:21:03;;;;;;;4.63;3.23;;;3.00;99.90;;;;;;5028046;28;20452;-46
2022/04/01 06:23:49;;;;;;;8.37;3.80;;;3.00;99.90;;;;;;5029019;28;20783;-46
2022/04/01 06:26:16;;;;;;;11.27;3.90;;;3.10;99.90;;;;;;5029436;28;20515;-46
2022/04/01 06:29:00;;;;;;;4.57;3.13;;;3.00;99.90;;;;;;5030026;28;20763;-46
2022/04/01 06:31:26;;;;;;;7.57;4.20;;;3.20;99.90;;;;;;5029833;28;20436;-46
2022/04/01 06:34:14;;;;;;;5.73;3.17;;;3.20;99.90;;;;;;5031279;28;20434;-46
2022/04/01 06:36:46;;;;;;;5.40;3.30;;;3.30;99.90;;;;;;5023778;28;20441;-46
2022/04/01 06:39:20;;;;;;;6.83;3.37;;;3.30;99.90;;;;;;5026437;28;20434;-46
2022/04/01 06:41:49;;;;;;;8.13;3.53;;;3.40;99.90;;;;;;5025839;28;20525;-46
2022/04/01 06:44:14;;;;;;;5.87;3.20;;;3.40;99.90;;;;;;5027111;28;20437;-46
2022/04/01 06:46:40;;;;;;;7.90;3.63;;;3.40;99.90;;;;;;5023183;28;20472;-45
2022/04/01 06:49:08;;;;;;;8.50;4.03;;;3.40;99.90;;;;;;5029089;28;20433;-46
2022/04/01 06:51:39;;;;;;;5.03;3.50;;;3.40;99.90;;;;;;5029487;28;20278;-46
2022/04/01 06:54:05;;;;;;;7.13;3.80;;;3.50;99.90;;;;;;5024795;28;20445;-46
2022/04/01 06:56:31;;;;;;;19.43;3.13;;;3.60;99.90;;;;;;5026942;28;20556;-46
2022/04/01 06:58:57;;;;;;;5.07;3.33;;;3.60;99.90;;;;;;5011991;28;20579;-45
2022/04/01 07:01:23;;;;;;;5.03;3.63;;;3.70;99.90;;;;;;5028938;28;20230;-46
2022/04/01 07:03:48;;;;;;;7.90;3.23;;;3.70;99.90;;;;;;5020411;28;20524;-45
2022/04/01 07:06:14;;;;;;;8.63;3.47;;;3.80;99.90;;;;;;5025578;28;20206;-45
2022/04/01 07:08:40;;;;;;;9.77;3.60;;;3.80;99.90;;;;;;5024946;28;20226;-46
2022/04/01 07:11:05;;;;;;;9.60;3.57;;;3.90;99.90;;;;;;5027398;28;20191;-45
2022/04/01 07:13:32;;;;;;;7.90;3.80;;;3.90;99.90;;;;;;5027449;28;20193;-45
2022/04/01 07:15:58;;;;;;;7.20;3.50;;;3.90;99.90;;;;;;5027990;28;20266;-45
2022/04/01 07:18:24;;;;;;;5.23;3.27;;;3.90;99.90;;;;;;5028871;28;20517;-45
2022/04/01 07:20:51;;;;;;;11.60;4.10;;;4.00;99.90;;;;;;5028451;28;20539;-45
2022/04/01 07:23:16;;;;;;;6.77;3.83;;;4.10;99.90;;;;;;5028282;28;20442;-45
2022/04/01 07:25:42;;;;;;;4.63;3.10;;;4.10;99.90;;;;;;5028838;28;20496;-45
2022/04/01 07:28:09;;;;;;;6.70;3.53;;;4.10;99.90;;;;;;5026897;28;20190;-46
2022/04/01 07:30:37;;;;;;;4.80;3.50;;;4.20;99.90;;;;;;5020104;28;20876;-46
2022/04/01 07:33:03;;;;;;;9.77;3.70;;;4.30;99.90;;;;;;5022173;28;20453;-46
2022/04/01 07:35:29;;;;;;;6.60;3.40;;;4.30;99.90;;;;;;5030566;28;20942;-46
2022/04/01 07:37:55;;;;;;;6.73;3.70;;;4.20;99.90;;;;;;5027911;28;20445;-46
2022/04/01 07:40:23;;;;;;;10.50;3.80;;;4.30;99.90;;;;;;5027705;28;20766;-49
2022/04/01 07:42:49;;;;;;;8.80;4.30;;;4.40;99.90;;;;;;5027646;28;20209;-46
2022/04/01 07:45:15;;;;;;;6.60;3.60;;;4.50;99.90;;;;;;5027090;28;20515;-45
2022/04/01 07:47:44;;;;;;;8.70;3.27;;;4.40;99.90;;;;;;5029050;28;20855;-46
2022/04/01 07:50:10;;;;;;;6.67;3.40;;;4.50;99.90;;;;;;5020890;28;20189;-46
2022/04/01 07:52:40;;;;;;;6.73;3.33;;;4.60;99.90;;;;;;5028006;28;20441;-46
2022/04/01 07:55:07;;;;;;;7.60;3.77;;;4.70;99.90;;;;;;5028989;28;20485;-45
2022/04/01 07:57:33;;;;;;;9.10;3.83;;;4.80;99.90;;;;;;5028345;28;20446;-45
2022/04/01 07:59:58;;;;;;;5.23;3.47;;;4.90;99.90;;;;;;5025097;28;20504;-45
2022/04/01 08:02:24;;;;;;;9.53;4.20;;;4.90;99.90;;;;;;5027083;28;20274;-45
2022/04/01 08:04:49;;;;;;;6.20;3.53;;;4.80;99.90;;;;;;5025161;28;20239;-45
2022/04/01 08:07:16;;;;;;;4.10;3.43;;;4.90;99.90;;;;;;5026816;28;20256;-45
2022/04/01 08:09:42;;;;;;;8.23;4.20;;;5.00;99.90;;;;;;5027503;28;20194;-45
2022/04/01 08:12:10;;;;;;;5.47;3.67;;;5.00;99.90;;;;;;5027885;28;20437;-45
2022/04/01 08:14:37;;;;;;;4.47;3.60;;;5.00;99.90;;;;;;5027247;28;20221;-45
2022/04/01 08:17:04;;;;;;;9.50;4.57;;;5.10;99.90;;;;;;5025233;28;20430;-45
2022/04/01 08:19:31;;;;;;;10.03;3.83;;;5.10;99.90;;;;;;5027420;28;20465;-44
2022/04/01 08:21:57;;;;;;;8.60;3.87;;;5.10;99.90;;;;;;5027116;28;20441;-45
2022/04/01 08:24:24;;;;;;;7.50;4.40;;;5.10;99.90;;;;;;5026290;28;20437;-45
2022/04/01 08:26:50;;;;;;;8.03;4.30;;;5.10;99.90;;;;;;5030565;28;20799;-46
2022/04/01 08:29:16;;;;;;;7.60;4.37;;;5.30;99.90;;;;;;5030674;28;20480;-45
2022/04/01 08:31:42;;;;;;;5.30;3.97;;;5.40;99.90;;;;;;5023964;28;20942;-45
2022/04/01 08:34:08;;;;;;;6.13;3.63;;;5.40;99.90;;;;;;5021564;28;20270;-46
2022/04/01 08:36:34;;;;;;;7.43;4.17;;;5.40;99.90;;;;;;5028328;28;20194;-45
2022/04/01 08:38:59;;;;;;;12.00;4.73;;;5.50;99.90;;;;;;5030176;28;20878;-45
2022/04/01 08:41:25;;;;;;;7.10;4.73;;;5.50;99.90;;;;;;5030804;28;20187;-45
2022/04/01 08:43:52;;;;;;;6.23;3.80;;;5.30;99.90;;;;;;5030555;28;20206;-45
2022/04/01 08:46:19;;;;;;;7.03;4.90;;;5.30;99.90;;;;;;5031084;28;20473;-45
2022/04/01 08:48:46;;;;;;;5.10;3.67;;;5.30;99.90;;;;;;5013262;28;20482;-45
2022/04/01 08:51:13;;;;;;;6.70;4.50;;;5.30;99.90;;;;;;5030447;28;21028;-46
2022/04/01 08:53:41;;;;;;;6.50;4.20;;;5.30;99.90;;;;;;5029817;28;21059;-45
2022/04/01 08:56:08;;;;;;;6.87;4.30;;;5.40;99.90;;;;;;5027030;28;20484;-46
2022/04/01 08:58:34;;;;;;;6.07;4.53;;;5.60;99.90;;;;;;5025266;28;20468;-45
2022/04/01 09:01:01;;;;;;;7.57;4.53;;;5.80;99.90;;;;;;5026357;28;21554;-46
2022/04/01 09:03:27;;;;;;;14.73;5.10;;;5.90;99.90;;;;;;5023987;28;20187;-46
2022/04/01 09:05:55;;;;;;;6.97;4.90;;;6.10;99.90;;;;;;5030008;28;20813;-46
2022/04/01 09:08:24;;;;;;;6.83;4.57;;;6.10;99.90;;;;;;5028454;28;20434;-46
2022/04/01 09:11:01;;;;;;;5.13;4.30;;;6.10;99.90;;;;;;5028215;28;20946;-46
2022/04/01 09:13:29;;;;;;;6.87;4.40;;;6.00;99.90;;;;;;5030308;28;20429;-45
2022/04/01 09:15:55;;;;;;;12.30;4.57;;;5.90;99.90;;;;;;5031004;28;20774;-46
2022/04/01 09:18:34;;;;;;;9.90;4.30;;;5.90;99.90;;;;;;5027039;28;20532;-46
2022/04/01 09:21:00;;;;;;;7.83;4.13;;;5.80;99.90;;;;;;5029122;28;20516;-46
2022/04/01 09:23:26;;;;;;;6.17;4.27;;;5.80;99.90;;;;;;5029826;28;20521;-45
2022/04/01 09:25:53;;;;;;;7.40;3.80;;;5.60;99.90;;;;;;5030014;28;20710;-45
2022/04/01 09:28:25;;;;;;;6.83;3.40;;;5.70;99.90;;;;;;5028210;28;20191;-46
2022/04/01 09:31:11;;;;;;;5.57;3.50;;;5.80;99.90;;;;;;5023613;28;20441;-46
2022/04/01 09:33:42;;;;;;;8.00;3.93;;;5.90;99.90;;;;;;5026842;28;20429;-46
2022/04/01 09:36:10;;;;;;;6.20;3.87;;;5.90;99.90;;;;;;5027945;28;20468;-46
2022/04/01 09:38:36;;;;;;;9.00;4.07;;;5.80;99.90;;;;;;5028558;28;20448;-46
2022/04/01 09:41:07;;;;;;;4.50;3.10;;;5.80;99.90;;;;;;5029746;28;20818;-45
2022/04/01 09:43:39;;;;;;;5.83;3.30;;;5.80;99.90;;;;;;5029014;28;21174;-46
2022/04/01 09:46:21;;;;;;;5.13;3.00;;;5.80;99.90;;;;;;5030366;28;21148;-46
2022/04/01 09:48:48;;;;;;;5.27;2.97;;;5.70;99.90;;;;;;5026356;28;20762;-46
2022/04/01 09:51:13;;;;;;;3.70;3.23;;;5.60;99.90;;;;;;5029564;28;20438;-46
2022/04/01 09:53:39;;;;;;;5.60;2.93;;;5.70;99.90;;;;;;5028796;28;20441;-47
2022/04/01 09:56:05;;;;;;;5.63;2.77;;;5.80;99.90;;;;;;5030309;28;20187;-46
2022/04/01 09:58:31;;;;;;;3.67;3.10;;;5.80;99.90;;;;;;5027052;28;20676;-47
2022/04/01 10:00:59;;;;;;;7.10;3.30;;;5.80;99.90;;;;;;5025319;28;20576;-46
2022/04/01 10:03:25;;;;;;;5.72;3.03;;;5.90;99.90;;;;;;5029189;28;20979;-46
2022/04/01 10:05:51;;;;;;;5.97;2.97;;;5.90;99.90;;;;;;5028899;28;20188;-45
2022/04/01 10:08:17;;;;;;;5.73;3.17;;;6.10;99.90;;;;;;5029245;28;20194;-46
2022/04/01 10:10:46;;;;;;;8.43;3.10;;;6.20;99.90;;;;;;5028222;28;20434;-46
2022/04/01 10:13:20;;;;;;;5.30;2.73;;;6.30;99.90;;;;;;5028600;28;20916;-46
2022/04/01 10:15:47;;;;;;;4.77;2.90;;;6.30;99.90;;;;;;5031400;28;20477;-45
2022/04/01 10:18:15;;;;;;;5.93;2.63;;;6.30;99.90;;;;;;5029016;28;20445;-46
2022/04/01 10:20:40;;;;;;;4.73;2.80;;;6.30;99.90;;;;;;5030553;28;20465;-45
2022/04/01 10:23:11;;;;;;;4.33;2.60;;;6.30;99.90;;;;;;5030770;28;20465;-46
2022/04/01 10:26:14;;;;;;;6.60;2.73;;;6.40;99.90;;;;;;5028920;28;20179;-46
2022/04/01 10:28:42;;;;;;;7.13;2.80;;;6.50;99.90;;;;;;4950755;29;20452;-46
2022/04/01 10:31:13;;;;;;;7.70;3.37;;;6.60;99.90;;;;;;5003870;28;20449;-46
2022/04/01 10:33:39;;;;;;;9.10;3.00;;;6.50;99.90;;;;;;5031412;28;20456;-46
2022/04/01 10:36:26;;;;;;;4.30;2.43;;;6.50;99.90;;;;;;5028196;28;20960;-46
2022/04/01 10:39:01;;;;;;;3.63;2.90;;;6.40;99.90;;;;;;5026922;28;20185;-46
2022/04/01 10:41:27;;;;;;;5.00;3.20;;;6.20;99.90;;;;;;5031486;28;20425;-45
2022/04/01 10:43:55;;;;;;;3.93;2.77;;;6.20;99.90;;;;;;5031128;28;20409;-46
2022/04/01 10:46:21;;;;;;;3.00;2.63;;;6.00;99.90;;;;;;5030646;28;20652;-45
2022/04/01 10:52:08;;;;;;;4.43;2.20;;;5.80;99.90;;;;;;5031089;28;20532;-45
2022/04/01 10:54:37;;;;;;;3.00;2.30;;;5.70;99.90;;;;;;5027715;28;20442;-46
2022/04/01 10:57:08;;;;;;;2.53;2.30;;;5.80;99.90;;;;;;5029362;28;20984;-46
2022/04/01 10:59:50;;;;;;;2.67;2.00;;;6.10;99.90;;;;;;5030912;28;21552;-45
2022/04/01 11:02:21;;;;;;;6.87;2.50;;;6.30;99.90;;;;;;5030433;28;20426;-46
2022/04/01 11:04:47;;;;;;;2.73;2.20;;;6.50;99.90;;;;;;5030555;28;20429;-46
2022/04/01 11:07:30;;;;;;;3.30;2.53;;;6.60;99.90;;;;;;5030396;28;21265;-46
2022/04/01 11:09:56;;;;;;;4.67;2.50;;;6.60;99.90;;;;;;5030513;28;20406;-46
2022/04/01 11:12:23;;;;;;;2.97;2.10;;;6.50;99.90;;;;;;5030597;28;20410;-46
2022/04/01 11:14:55;;;;;;;5.83;2.33;;;6.30;99.90;;;;;;5030402;28;21175;-46
2022/04/01 11:17:22;;;;;;;4.17;2.23;;;6.30;99.90;;;;;;5030176;28;20476;-45
2022/04/01 11:20:09;;;;;;;4.27;1.80;;;6.30;99.90;;;;;;5021420;28;20479;-45
2022/04/01 11:22:40;;;;;;;4.53;3.17;;;6.40;99.90;;;;;;4992694;28;20434;-46
2022/04/01 11:25:27;;;;;;;3.67;2.27;;;6.50;99.90;;;;;;5024864;28;20417;-46
2022/04/01 11:27:58;;;;;;;4.67;2.40;;;6.50;99.90;;;;;;5021880;28;20488;-46
2022/04/01 11:30:29;;;;;;;6.03;2.40;;;6.30;99.90;;;;;;5026514;28;20477;-46
2022/04/01 11:33:00;;;;;;;8.80;3.43;;;6.30;99.90;;;;;;5028735;28;20484;-55
2022/04/01 11:35:31;;;;;;;4.47;2.40;;;6.30;99.90;;;;;;5025027;28;20441;-46
2022/04/01 11:37:58;;;;;;;4.13;2.20;;;6.20;99.90;;;;;;5020164;28;20453;-46
2022/04/01 11:40:29;;;;;;;3.20;2.37;;;6.20;99.90;;;;;;5029860;28;21243;-46
2022/04/01 11:42:59;;;;;;;9.30;2.20;;;6.20;99.90;;;;;;5028564;28;20454;-46
2022/04/01 11:45:26;;;;;;;3.10;2.43;;;6.30;99.90;;;;;;5029676;28;20418;-46
2022/04/01 11:47:52;;;;;;;3.10;2.20;;;6.30;99.90;;;;;;5028759;28;20484;-45
2022/04/01 11:50:20;;;;;;;5.27;2.60;;;6.30;99.90;;;;;;5028937;28;20748;-46
2022/04/01 11:52:56;;;;;;;7.00;2.53;;;6.40;99.90;;;;;;5028872;28;20450;-46
2022/04/01 11:55:25;;;;;;;6.47;2.60;;;6.50;99.90;;;;;;5028664;28;20460;-45
2022/04/01 11:57:53;;;;;;;4.13;2.30;;;6.60;99.90;;;;;;5010600;28;20437;-51
2022/04/01 12:00:21;;;;;;;5.67;2.50;;;6.70;99.90;;;;;;5022097;28;20482;-45
2022/04/01 12:02:49;;;;;;;4.90;2.50;;;7.00;99.90;;;;;;5011371;28;20485;-46
2022/04/01 12:05:15;;;;;;;8.10;2.83;;;7.00;99.90;;;;;;4999429;28;20529;-46
2022/04/01 12:10:29;;;;;;;4.20;2.43;;;6.80;99.90;;;;;;5011712;28;20517;-46
2022/04/01 12:13:04;;;;;;;5.93;2.60;;;6.90;99.90;;;;;;4982284;28;20437;-46
2022/04/01 12:15:47;;;;;;;7.70;2.20;;;6.90;99.90;;;;;;5008973;28;20444;-46
2022/04/01 12:18:17;;;;;;;7.60;2.63;;;6.90;99.90;;;;;;5006736;28;20445;-46
2022/04/01 12:20:55;;;;;;;4.67;2.27;;;6.80;99.90;;;;;;5013040;28;20514;-46
2022/04/01 12:23:22;;;;;;;3.93;2.30;;;6.80;99.90;;;;;;5012889;28;20437;-46
2022/04/01 12:25:53;;;;;;;6.57;2.80;;;6.60;99.90;;;;;;5013378;28;20480;-45
2022/04/01 12:28:23;;;;;;;4.40;3.10;;;6.50;99.90;;;;;;5010255;28;20462;-46
2022/04/01 12:30:51;;;;;;;6.13;2.60;;;6.60;99.90;;;;;;5012776;28;20423;-45
2022/04/01 12:33:20;;;;;;;3.03;2.73;;;6.40;99.90;;;;;;5013588;28;20422;-45
2022/04/01 12:35:52;;;;;;;4.73;2.50;;;6.30;99.90;;;;;;4995248;28;20941;-45
2022/04/01 12:38:18;;;;;;;3.40;2.10;;;6.40;99.90;;;;;;4996494;28;20443;-54
2022/04/01 12:40:47;;;;;;;4.30;2.43;;;6.50;99.90;;;;;;4994315;28;20494;-45
2022/04/01 12:43:31;;;;;;;8.83;2.40;;;6.30;99.90;;;;;;4994230;28;20976;-45
2022/04/01 12:46:08;;;;;;;5.23;2.53;;;6.30;99.90;;;;;;4996413;28;20881;-46
2022/04/01 12:48:47;;;;;;;3.57;2.57;;;6.20;99.90;;;;;;5013231;28;20414;-46
2022/04/01 12:51:20;;;;;;;4.77;2.80;;;6.30;99.90;;;;;;5013462;28;20432;-46
2022/04/01 12:54:08;;;;;;;7.53;2.80;;;6.30;99.90;;;;;;5013738;28;20415;-46
2022/04/01 12:56:42;;;;;;;6.30;3.17;;;6.40;99.90;;;;;;5013358;28;20815;-46
2022/04/01 12:59:09;;;;;;;4.80;2.80;;;6.40;99.90;;;;;;5013683;28;20492;-47
2022/04/01 13:01:41;;;;;;;8.90;3.40;;;6.40;99.90;;;;;;5033753;28;20503;-47
2022/04/01 13:04:09;;;;;;;8.40;2.10;;;6.60;99.90;;;;;;5033231;28;20444;-47
2022/04/01 13:06:35;;;;;;;4.20;2.60;;;6.60;99.90;;;;;;5032810;28;20493;-46
2022/04/01 13:09:08;;;;;;;4.73;2.67;;;6.60;99.90;;;;;;5032518;28;20456;-47
2022/04/01 13:11:41;;;;;;;5.17;3.20;;;6.40;99.90;;;;;;5032913;28;20175;-46
2022/04/01 13:14:28;;;;;;;4.10;3.10;;;6.20;99.90;;;;;;5019121;28;20507;-47
2022/04/01 13:16:56;;;;;;;7.10;4.40;;;6.20;99.90;;;;;;5012994;28;20403;-47
2022/04/01 13:19:26;;;;;;;6.60;2.83;;;6.30;99.90;;;;;;5013247;28;20410;-46